Weather at Mandalay International Airport

Public forecast

Using degrees Celsius for public forecast. Weather courtesy of forecast.io.

Current aviation weather report (METAR) for Mandalay International Airport

Retrieved 2021/03/04 10:30 UTC (8 minutes ago):

VYMD 041030Z 32003KT 7000 NSC 37/10 Q1006 NOSIG

Aviation forecast (TAF) for Mandalay International Airport

Forecast is more than 6 hours old.

Retrieved 2021-03-04 00:00 UTC (11 hours ago):

TAF VYMD 032300Z 0400/0424 32007KT 7000 NSC TEMPO 0400/0406 35010KT 6000 FEW025